sensor_id;sensor_type;location;lat;lon;timestamp;pressure;altitude;pressure_sealevel;temperature;humidity
40612;BME280;26317;44.894;20.286;2023-04-23T00:01:58;100558.88;;;15.57;53.34
40612;BME280;26317;44.894;20.286;2023-04-23T00:04:38;100559.31;;;15.51;53.59
40612;BME280;26317;44.894;20.286;2023-04-23T00:07:19;100558.56;;;15.45;53.78
40612;BME280;26317;44.894;20.286;2023-04-23T00:09:56;100554.41;;;15.39;55.09
40612;BME280;26317;44.894;20.286;2023-04-23T00:12:36;100557.47;;;15.33;55.23
40612;BME280;26317;44.894;20.286;2023-04-23T00:15:19;100554.00;;;15.18;56.08
40612;BME280;26317;44.894;20.286;2023-04-23T00:17:54;100552.81;;;15.11;56.02
40612;BME280;26317;44.894;20.286;2023-04-23T00:20:31;100557.41;;;15.10;56.37
40612;BME280;26317;44.894;20.286;2023-04-23T00:23:07;100544.59;;;15.02;56.55
40612;BME280;26317;44.894;20.286;2023-04-23T00:25:46;100554.72;;;15.10;57.01
40612;BME280;26317;44.894;20.286;2023-04-23T00:28:30;100558.50;;;15.09;56.85
40612;BME280;26317;44.894;20.286;2023-04-23T00:31:10;100544.09;;;15.00;56.76
40612;BME280;26317;44.894;20.286;2023-04-23T00:34:02;100554.00;;;15.05;56.96
40612;BME280;26317;44.894;20.286;2023-04-23T00:36:37;100554.09;;;15.00;56.54
40612;BME280;26317;44.894;20.286;2023-04-23T00:39:18;100558.69;;;14.99;56.80
40612;BME280;26317;44.894;20.286;2023-04-23T00:41:54;100563.09;;;14.95;57.32
40612;BME280;26317;44.894;20.286;2023-04-23T00:44:34;100562.28;;;14.95;57.64
40612;BME280;26317;44.894;20.286;2023-04-23T00:47:17;100560.50;;;14.90;57.88
40612;BME280;26317;44.894;20.286;2023-04-23T00:49:55;100552.97;;;14.87;58.30
40612;BME280;26317;44.894;20.286;2023-04-23T00:52:34;100562.78;;;14.83;58.70
40612;BME280;26317;44.894;20.286;2023-04-23T00:55:11;100555.56;;;14.79;58.77
40612;BME280;26317;44.894;20.286;2023-04-23T00:57:54;100561.06;;;14.73;58.62
40612;BME280;26317;44.894;20.286;2023-04-23T01:00:44;100557.25;;;14.74;59.07
40612;BME280;26317;44.894;20.286;2023-04-23T01:03:27;100557.84;;;14.71;58.98
40612;BME280;26317;44.894;20.286;2023-04-23T01:06:05;100562.84;;;14.64;59.26
40612;BME280;26317;44.894;20.286;2023-04-23T01:08:41;100559.16;;;14.60;59.88
40612;BME280;26317;44.894;20.286;2023-04-23T01:11:15;100560.31;;;14.54;60.37
40612;BME280;26317;44.894;20.286;2023-04-23T01:13:54;100558.09;;;14.43;60.87
40612;BME280;26317;44.894;20.286;2023-04-23T01:16:40;100560.88;;;14.38;61.04
40612;BME280;26317;44.894;20.286;2023-04-23T01:19:31;100559.56;;;14.35;61.39
40612;BME280;26317;44.894;20.286;2023-04-23T01:22:18;100563.94;;;14.31;61.66
40612;BME280;26317;44.894;20.286;2023-04-23T01:24:55;100564.50;;;14.28;61.99
40612;BME280;26317;44.894;20.286;2023-04-23T01:27:31;100564.81;;;14.26;62.53
40612;BME280;26317;44.894;20.286;2023-04-23T01:30:08;100564.88;;;14.21;62.49
40612;BME280;26317;44.894;20.286;2023-04-23T01:32:52;100561.97;;;14.18;62.46
40612;BME280;26317;44.894;20.286;2023-04-23T01:35:31;100532.63;;;13.98;62.72
40612;BME280;26317;44.894;20.286;2023-04-23T01:38:12;100566.13;;;14.10;62.93
40612;BME280;26317;44.894;20.286;2023-04-23T01:40:51;100559.94;;;14.10;62.65
40612;BME280;26317;44.894;20.286;2023-04-23T01:43:31;100563.72;;;14.09;62.95
40612;BME280;26317;44.894;20.286;2023-04-23T01:46:06;100559.13;;;14.09;62.43
40612;BME280;26317;44.894;20.286;2023-04-23T01:48:53;100562.13;;;14.08;62.77
40612;BME280;26317;44.894;20.286;2023-04-23T01:51:34;100547.13;;;14.02;63.01
40612;BME280;26317;44.894;20.286;2023-04-23T01:54:10;100551.91;;;14.05;62.79
40612;BME280;26317;44.894;20.286;2023-04-23T01:56:47;100549.72;;;14.07;62.68
40612;BME280;26317;44.894;20.286;2023-04-23T01:59:24;100552.94;;;14.09;62.36
40612;BME280;26317;44.894;20.286;2023-04-23T02:02:01;100546.94;;;14.12;62.09
40612;BME280;26317;44.894;20.286;2023-04-23T02:04:44;100559.13;;;14.09;62.22
40612;BME280;26317;44.894;20.286;2023-04-23T02:07:20;100552.66;;;14.10;62.42
40612;BME280;26317;44.894;20.286;2023-04-23T02:10:02;100542.81;;;14.01;62.24
40612;BME280;26317;44.894;20.286;2023-04-23T02:12:38;100549.72;;;14.07;62.56
40612;BME280;26317;44.894;20.286;2023-04-23T02:15:19;100557.25;;;14.10;62.86
40612;BME280;26317;44.894;20.286;2023-04-23T02:17:52;100555.09;;;14.07;63.47
40612;BME280;26317;44.894;20.286;2023-04-23T02:20:27;100555.69;;;14.04;63.43
40612;BME280;26317;44.894;20.286;2023-04-23T02:23:07;100548.50;;;13.99;63.59
40612;BME280;26317;44.894;20.286;2023-04-23T02:25:49;100548.81;;;13.98;64.08
40612;BME280;26317;44.894;20.286;2023-04-23T02:28:26;100552.38;;;13.93;63.90
40612;BME280;26317;44.894;20.286;2023-04-23T02:31:04;100549.69;;;13.93;64.50
40612;BME280;26317;44.894;20.286;2023-04-23T02:33:43;100540.34;;;13.86;64.46
40612;BME280;26317;44.894;20.286;2023-04-23T02:36:18;100542.66;;;13.92;64.62
40612;BME280;26317;44.894;20.286;2023-04-23T02:39:06;100536.53;;;13.87;64.85
40612;BME280;26317;44.894;20.286;2023-04-23T02:41:47;100541.66;;;13.88;64.64
40612;BME280;26317;44.894;20.286;2023-04-23T02:44:22;100539.25;;;13.87;64.39
40612;BME280;26317;44.894;20.286;2023-04-23T02:47:09;100543.34;;;13.84;64.25
40612;BME280;26317;44.894;20.286;2023-04-23T02:49:41;100535.31;;;13.79;64.46
40612;BME280;26317;44.894;20.286;2023-04-23T02:52:17;100535.63;;;13.77;64.95
40612;BME280;26317;44.894;20.286;2023-04-23T02:54:58;100532.63;;;13.79;65.47
40612;BME280;26317;44.894;20.286;2023-04-23T02:57:47;100530.00;;;13.74;66.10
40612;BME280;26317;44.894;20.286;2023-04-23T03:00:19;100533.00;;;13.72;66.05
40612;BME280;26317;44.894;20.286;2023-04-23T03:02:54;100528.97;;;13.70;66.23
40612;BME280;26317;44.894;20.286;2023-04-23T03:05:29;100518.56;;;13.63;66.36
40612;BME280;26317;44.894;20.286;2023-04-23T03:08:01;100535.75;;;13.67;66.18
40612;BME280;26317;44.894;20.286;2023-04-23T03:10:34;100528.75;;;13.66;66.42
40612;BME280;26317;44.894;20.286;2023-04-23T03:13:24;100517.97;;;13.66;66.50
40612;BME280;26317;44.894;20.286;2023-04-23T03:15:57;100529.56;;;13.67;66.60
40612;BME280;26317;44.894;20.286;2023-04-23T03:18:30;100528.75;;;13.66;66.60
40612;BME280;26317;44.894;20.286;2023-04-23T03:21:06;100535.75;;;13.67;66.63
40612;BME280;26317;44.894;20.286;2023-04-23T03:23:43;100532.53;;;13.65;66.41
40612;BME280;26317;44.894;20.286;2023-04-23T03:26:20;100539.84;;;13.65;66.18
40612;BME280;26317;44.894;20.286;2023-04-23T03:29:06;100533.34;;;13.66;66.40
40612;BME280;26317;44.894;20.286;2023-04-23T03:31:45;100524.16;;;13.67;66.40
40612;BME280;26317;44.894;20.286;2023-04-23T03:34:30;100530.94;;;13.64;66.91
40612;BME280;26317;44.894;20.286;2023-04-23T03:40:05;100534.72;;;13.63;66.88
40612;BME280;26317;44.894;20.286;2023-04-23T03:42:49;100540.13;;;13.63;67.26
40612;BME280;26317;44.894;20.286;2023-04-23T03:46:08;100534.53;;;13.60;67.18
40612;BME280;26317;44.894;20.286;2023-04-23T03:48:44;100535.00;;;13.62;67.20
40612;BME280;26317;44.894;20.286;2023-04-23T03:51:27;100533.94;;;13.63;67.68
40612;BME280;26317;44.894;20.286;2023-04-23T03:54:03;100535.00;;;13.62;67.79
40612;BME280;26317;44.894;20.286;2023-04-23T03:57:04;100536.91;;;13.61;67.65
40612;BME280;26317;44.894;20.286;2023-04-23T03:59:49;100543.41;;;13.60;67.90
40612;BME280;26317;44.894;20.286;2023-04-23T04:02:35;100536.41;;;13.59;67.81
40612;BME280;26317;44.894;20.286;2023-04-23T04:05:19;100529.13;;;13.60;67.70
40612;BME280;26317;44.894;20.286;2023-04-23T04:07:59;100530.22;;;13.59;67.75
40612;BME280;26317;44.894;20.286;2023-04-23T04:10:34;100534.00;;;13.58;68.01
40612;BME280;26317;44.894;20.286;2023-04-23T04:13:11;100539.09;;;13.59;67.95
40612;BME280;26317;44.894;20.286;2023-04-23T04:15:54;100534.78;;;13.58;68.04
40612;BME280;26317;44.894;20.286;2023-04-23T04:18:33;100534.84;;;13.53;68.54
40612;BME280;26317;44.894;20.286;2023-04-23T04:21:16;100531.59;;;13.56;68.78
40612;BME280;26317;44.894;20.286;2023-04-23T04:23:51;100532.09;;;13.58;68.77
40612;BME280;26317;44.894;20.286;2023-04-23T04:26:29;100534.06;;;13.53;69.06
40612;BME280;26317;44.894;20.286;2023-04-23T04:29:04;100538.09;;;13.55;69.13
40612;BME280;26317;44.894;20.286;2023-04-23T04:31:49;100538.88;;;13.56;69.29
40612;BME280;26317;44.894;20.286;2023-04-23T04:34:34;100547.25;;;13.54;69.18
40612;BME280;26317;44.894;20.286;2023-04-23T04:37:15;100528.75;;;13.48;69.16
40612;BME280;26317;44.894;20.286;2023-04-23T04:39:51;100546.31;;;13.64;68.96
40612;BME280;26317;44.894;20.286;2023-04-23T04:42:27;100543.56;;;13.69;69.31
40612;BME280;26317;44.894;20.286;2023-04-23T04:45:07;100542.16;;;13.71;69.08
40612;BME280;26317;44.894;20.286;2023-04-23T04:47:42;100549.59;;;13.79;69.13
40612;BME280;26317;44.894;20.286;2023-04-23T04:50:22;100544.72;;;13.81;69.07
40612;BME280;26317;44.894;20.286;2023-04-23T04:53:00;100547.03;;;13.88;68.92
40612;BME280;26317;44.894;20.286;2023-04-23T04:55:35;100539.75;;;13.89;68.94
40612;BME280;26317;44.894;20.286;2023-04-23T04:58:14;100553.06;;;13.99;69.19
40612;BME280;26317;44.894;20.286;2023-04-23T05:00:52;100531.69;;;13.89;68.94
40612;BME280;26317;44.894;20.286;2023-04-23T05:03:35;100547.34;;;14.05;69.04
40612;BME280;26317;44.894;20.286;2023-04-23T05:06:11;100546.53;;;14.05;69.19
40612;BME280;26317;44.894;20.286;2023-04-23T05:08:47;100542.16;;;14.09;69.24
40612;BME280;26317;44.894;20.286;2023-04-23T05:11:25;100543.97;;;14.13;69.16
40612;BME280;26317;44.894;20.286;2023-04-23T05:14:16;100547.97;;;14.16;69.01
40612;BME280;26317;44.894;20.286;2023-04-23T05:16:49;100540.38;;;14.18;69.46
40612;BME280;26317;44.894;20.286;2023-04-23T05:19:26;100545.91;;;14.26;70.04
40612;BME280;26317;44.894;20.286;2023-04-23T05:22:06;100550.94;;;14.33;69.99
40612;BME280;26317;44.894;20.286;2023-04-23T05:24:41;100542.25;;;14.36;69.46
40612;BME280;26317;44.894;20.286;2023-04-23T05:27:21;100549.72;;;14.44;69.43
40612;BME280;26317;44.894;20.286;2023-04-23T05:30:05;100536.22;;;14.44;69.24
40612;BME280;26317;44.894;20.286;2023-04-23T05:32:42;100552.75;;;14.56;69.31
40612;BME280;26317;44.894;20.286;2023-04-23T05:35:15;100555.03;;;14.63;68.76
40612;BME280;26317;44.894;20.286;2023-04-23T05:37:50;100528.94;;;14.58;68.52
40612;BME280;26317;44.894;20.286;2023-04-23T05:40:24;100543.97;;;14.78;68.27
40612;BME280;26317;44.894;20.286;2023-04-23T05:43:00;100514.38;;;14.73;68.18
40612;BME280;26317;44.894;20.286;2023-04-23T05:45:42;100543.09;;;14.96;68.13
40612;BME280;26317;44.894;20.286;2023-04-23T05:48:28;100540.19;;;15.06;67.91
40612;BME280;26317;44.894;20.286;2023-04-23T05:51:09;100536.47;;;15.16;67.59
40612;BME280;26317;44.894;20.286;2023-04-23T05:53:49;100534.47;;;15.22;66.92
40612;BME280;26317;44.894;20.286;2023-04-23T05:56:22;100540.78;;;15.44;66.56
40612;BME280;26317;44.894;20.286;2023-04-23T05:58:55;100537.69;;;15.51;65.51
40612;BME280;26317;44.894;20.286;2023-04-23T06:01:39;100539.66;;;15.59;65.12
40612;BME280;26317;44.894;20.286;2023-04-23T06:04:18;100533.84;;;15.65;63.94
40612;BME280;26317;44.894;20.286;2023-04-23T06:06:52;100543.34;;;15.77;63.82
40612;BME280;26317;44.894;20.286;2023-04-23T06:09:25;100529.09;;;15.85;63.21
40612;BME280;26317;44.894;20.286;2023-04-23T06:12:02;100530.44;;;15.96;63.58
40612;BME280;26317;44.894;20.286;2023-04-23T06:14:44;100535.13;;;16.04;61.96
40612;BME280;26317;44.894;20.286;2023-04-23T06:17:17;100529.13;;;16.07;61.49
40612;BME280;26317;44.894;20.286;2023-04-23T06:20:02;100519.56;;;16.09;61.11
40612;BME280;26317;44.894;20.286;2023-04-23T06:22:44;100530.19;;;16.28;60.48
40612;BME280;26317;44.894;20.286;2023-04-23T06:25:23;100539.84;;;16.43;59.40
40612;BME280;26317;44.894;20.286;2023-04-23T06:27:59;100534.19;;;16.53;59.06
40612;BME280;26317;44.894;20.286;2023-04-23T06:30:44;100539.66;;;16.62;57.54
40612;BME280;26317;44.894;20.286;2023-04-23T06:33:36;100487.31;;;16.44;57.86
40612;BME280;26317;44.894;20.286;2023-04-23T06:36:15;100530.06;;;16.78;57.39
40612;BME280;26317;44.894;20.286;2023-04-23T06:38:56;100536.78;;;16.89;56.57
40612;BME280;26317;44.894;20.286;2023-04-23T06:41:31;100541.31;;;17.02;55.34
40612;BME280;26317;44.894;20.286;2023-04-23T06:44:26;100530.16;;;17.12;54.85
40612;BME280;26317;44.894;20.286;2023-04-23T06:47:05;100511.34;;;17.07;54.56
40612;BME280;26317;44.894;20.286;2023-04-23T06:49:42;100533.91;;;17.33;54.27
40612;BME280;26317;44.894;20.286;2023-04-23T06:52:19;100530.72;;;17.40;53.92
40612;BME280;26317;44.894;20.286;2023-04-23T06:54:53;100523.41;;;17.49;52.78
40612;BME280;26317;44.894;20.286;2023-04-23T06:57:37;100525.50;;;17.52;53.52
40612;BME280;26317;44.894;20.286;2023-04-23T07:00:13;100533.53;;;17.66;53.92
40612;BME280;26317;44.894;20.286;2023-04-23T07:02:51;100512.78;;;17.70;53.50
40612;BME280;26317;44.894;20.286;2023-04-23T07:05:34;100530.00;;;17.91;52.62
40612;BME280;26317;44.894;20.286;2023-04-23T07:08:07;100526.66;;;18.03;52.76
40612;BME280;26317;44.894;20.286;2023-04-23T07:10:47;100526.31;;;18.13;52.48
40612;BME280;26317;44.894;20.286;2023-04-23T07:13:30;100532.84;;;18.20;52.26
40612;BME280;26317;44.894;20.286;2023-04-23T07:16:18;100527.09;;;18.30;53.18
40612;BME280;26317;44.894;20.286;2023-04-23T07:19:00;100525.63;;;18.42;51.77
40612;BME280;26317;44.894;20.286;2023-04-23T07:21:39;100534.09;;;18.49;48.08
40612;BME280;26317;44.894;20.286;2023-04-23T07:24:21;100528.03;;;18.60;47.74
40612;BME280;26317;44.894;20.286;2023-04-23T07:26:57;100524.78;;;18.67;47.47
40612;BME280;26317;44.894;20.286;2023-04-23T07:29:41;100525.56;;;18.76;47.51
40612;BME280;26317;44.894;20.286;2023-04-23T07:32:21;100522.03;;;18.84;46.47
40612;BME280;26317;44.894;20.286;2023-04-23T07:35:02;100519.75;;;18.95;46.77
40612;BME280;26317;44.894;20.286;2023-04-23T07:37:36;100518.13;;;19.02;46.34
40612;BME280;26317;44.894;20.286;2023-04-23T07:40:38;100524.31;;;19.11;46.25
40612;BME280;26317;44.894;20.286;2023-04-23T07:43:20;100527.00;;;19.20;46.67
40612;BME280;26317;44.894;20.286;2023-04-23T07:46:05;100518.03;;;19.19;47.05
40612;BME280;26317;44.894;20.286;2023-04-23T07:48:38;100523.06;;;19.29;45.73
40612;BME280;26317;44.894;20.286;2023-04-23T07:51:11;100523.81;;;19.39;45.78
40612;BME280;26317;44.894;20.286;2023-04-23T07:53:48;100495.69;;;19.35;46.29
40612;BME280;26317;44.894;20.286;2023-04-23T07:56:27;100520.63;;;19.45;48.43
40612;BME280;26317;44.894;20.286;2023-04-23T07:58:59;100522.56;;;19.45;46.62
40612;BME280;26317;44.894;20.286;2023-04-23T08:01:32;100526.34;;;19.52;46.04
40612;BME280;26317;44.894;20.286;2023-04-23T08:04:25;100516.69;;;19.55;46.36
40612;BME280;26317;44.894;20.286;2023-04-23T08:07:05;100521.28;;;19.63;45.77
40612;BME280;26317;44.894;20.286;2023-04-23T08:09:52;100518.31;;;19.77;46.86
40612;BME280;26317;44.894;20.286;2023-04-23T08:12:34;100517.75;;;19.83;47.86
40612;BME280;26317;44.894;20.286;2023-04-23T08:15:08;100511.25;;;19.96;44.26
40612;BME280;26317;44.894;20.286;2023-04-23T08:17:48;100486.03;;;19.87;44.21
40612;BME280;26317;44.894;20.286;2023-04-23T08:20:25;100513.03;;;20.13;44.13
40612;BME280;26317;44.894;20.286;2023-04-23T08:22:59;100504.31;;;20.19;44.48
40612;BME280;26317;44.894;20.286;2023-04-23T08:25:34;100513.34;;;20.32;43.59
40612;BME280;26317;44.894;20.286;2023-04-23T08:28:18;100505.91;;;20.41;43.94
40612;BME280;26317;44.894;20.286;2023-04-23T08:30:55;100517.03;;;20.48;43.36
40612;BME280;26317;44.894;20.286;2023-04-23T08:33:45;100512.63;;;20.56;42.44
40612;BME280;26317;44.894;20.286;2023-04-23T08:36:17;100508.06;;;20.60;41.38
40612;BME280;26317;44.894;20.286;2023-04-23T08:38:52;100503.78;;;20.71;42.41
40612;BME280;26317;44.894;20.286;2023-04-23T08:41:35;100497.09;;;20.81;41.83
40612;BME280;26317;44.894;20.286;2023-04-23T08:44:17;100501.84;;;20.84;42.79
40612;BME280;26317;44.894;20.286;2023-04-23T08:46:52;100506.66;;;20.99;40.78
40612;BME280;26317;44.894;20.286;2023-04-23T08:49:33;100491.53;;;21.01;42.20
40612;BME280;26317;44.894;20.286;2023-04-23T08:52:18;100496.53;;;21.11;41.40
40612;BME280;26317;44.894;20.286;2023-04-23T08:54:58;100491.53;;;21.14;38.16
40612;BME280;26317;44.894;20.286;2023-04-23T08:57:33;100493.34;;;21.22;37.93
40612;BME280;26317;44.894;20.286;2023-04-23T09:00:12;100486.06;;;21.26;38.08
40612;BME280;26317;44.894;20.286;2023-04-23T09:02:56;100485.50;;;21.32;37.53
40612;BME280;26317;44.894;20.286;2023-04-23T09:05:31;100468.78;;;21.34;38.96
40612;BME280;26317;44.894;20.286;2023-04-23T09:08:05;100476.59;;;21.47;40.29
40612;BME280;26317;44.894;20.286;2023-04-23T09:10:46;100475.22;;;21.53;40.28
40612;BME280;26317;44.894;20.286;2023-04-23T09:13:24;100447.03;;;21.49;40.36
40612;BME280;26317;44.894;20.286;2023-04-23T09:16:02;100476.63;;;21.75;39.73
40612;BME280;26317;44.894;20.286;2023-04-23T09:18:41;100471.81;;;21.84;39.39
40612;BME280;26317;44.894;20.286;2023-04-23T09:21:17;100475.69;;;21.95;39.07
40612;BME280;26317;44.894;20.286;2023-04-23T09:23:55;100470.41;;;22.02;38.84
40612;BME280;26317;44.894;20.286;2023-04-23T09:26:32;100460.38;;;22.07;38.85
40612;BME280;26317;44.894;20.286;2023-04-23T09:29:13;100462.16;;;22.15;38.84
40612;BME280;26317;44.894;20.286;2023-04-23T09:31:54;100465.44;;;22.20;37.18
40612;BME280;26317;44.894;20.286;2023-04-23T09:34:35;100463.22;;;22.26;36.31
40612;BME280;26317;44.894;20.286;2023-04-23T09:37:16;100470.38;;;22.30;35.91
40612;BME280;26317;44.894;20.286;2023-04-23T09:39:51;100466.00;;;22.41;35.88
40612;BME280;26317;44.894;20.286;2023-04-23T09:42:33;100459.63;;;22.53;36.24
40612;BME280;26317;44.894;20.286;2023-04-23T09:45:07;100450.19;;;22.35;35.85
40612;BME280;26317;44.894;20.286;2023-04-23T09:47:52;100457.41;;;22.43;36.62
40612;BME280;26317;44.894;20.286;2023-04-23T09:50:44;100430.72;;;22.36;34.80
40612;BME280;26317;44.894;20.286;2023-04-23T09:53:18;100453.03;;;22.54;34.87
40612;BME280;26317;44.894;20.286;2023-04-23T09:55:57;100451.78;;;22.67;34.49
40612;BME280;26317;44.894;20.286;2023-04-23T09:58:30;100439.28;;;22.66;33.83
40612;BME280;26317;44.894;20.286;2023-04-23T10:01:22;100439.53;;;22.77;33.48
40612;BME280;26317;44.894;20.286;2023-04-23T10:04:06;100440.50;;;22.84;34.16
40612;BME280;26317;44.894;20.286;2023-04-23T10:06:40;100445.34;;;22.91;33.99
40612;BME280;26317;44.894;20.286;2023-04-23T10:09:35;100437.75;;;22.84;33.69
40612;BME280;26317;44.894;20.286;2023-04-23T10:12:13;100438.28;;;22.90;32.26
40612;BME280;26317;44.894;20.286;2023-04-23T10:14:53;100433.22;;;23.08;33.86
40612;BME280;26317;44.894;20.286;2023-04-23T10:17:36;100433.84;;;23.17;32.93
40612;BME280;26317;44.894;20.286;2023-04-23T10:20:22;100421.75;;;23.37;32.61
40612;BME280;26317;44.894;20.286;2023-04-23T10:22:58;100419.88;;;23.41;32.49
40612;BME280;26317;44.894;20.286;2023-04-23T10:25:40;100425.63;;;23.36;31.70
40612;BME280;26317;44.894;20.286;2023-04-23T10:28:18;100421.03;;;23.21;30.95
40612;BME280;26317;44.894;20.286;2023-04-23T10:31:02;100419.63;;;23.11;32.87
40612;BME280;26317;44.894;20.286;2023-04-23T10:33:36;100412.22;;;23.12;33.58
40612;BME280;26317;44.894;20.286;2023-04-23T10:36:26;100409.56;;;23.15;31.92
40612;BME280;26317;44.894;20.286;2023-04-23T10:42:02;100408.63;;;22.92;32.37
40612;BME280;26317;44.894;20.286;2023-04-23T10:44:38;100404.94;;;22.84;32.82
40612;BME280;26317;44.894;20.286;2023-04-23T10:47:32;100395.13;;;22.99;33.18
40612;BME280;26317;44.894;20.286;2023-04-23T10:50:23;100400.00;;;23.25;32.02
40612;BME280;26317;44.894;20.286;2023-04-23T10:53:01;100395.69;;;23.43;32.96
40612;BME280;26317;44.894;20.286;2023-04-23T10:55:34;100380.50;;;23.46;31.53
40612;BME280;26317;44.894;20.286;2023-04-23T10:58:09;100379.13;;;23.55;30.68
40612;BME280;26317;44.894;20.286;2023-04-23T11:00:49;100377.63;;;23.42;32.11
40612;BME280;26317;44.894;20.286;2023-04-23T11:03:29;100381.56;;;23.41;31.98
40612;BME280;26317;44.894;20.286;2023-04-23T11:06:15;100387.44;;;23.24;31.85
40612;BME280;26317;44.894;20.286;2023-04-23T11:09:01;100380.94;;;23.13;32.16
40612;BME280;26317;44.894;20.286;2023-04-23T11:11:52;100385.19;;;23.10;32.41
40612;BME280;26317;44.894;20.286;2023-04-23T11:14:49;100381.59;;;23.06;31.78
40612;BME280;26317;44.894;20.286;2023-04-23T11:17:58;100385.84;;;23.23;32.77
40612;BME280;26317;44.894;20.286;2023-04-23T11:20:34;100381.00;;;23.51;30.36
40612;BME280;26317;44.894;20.286;2023-04-23T11:23:41;100376.09;;;23.79;31.02
40612;BME280;26317;44.894;20.286;2023-04-23T11:26:40;100369.56;;;23.88;31.70
40612;BME280;26317;44.894;20.286;2023-04-23T11:29:20;100371.69;;;23.98;30.87
40612;BME280;26317;44.894;20.286;2023-04-23T11:31:58;100367.06;;;24.21;30.88
40612;BME280;26317;44.894;20.286;2023-04-23T11:34:37;100365.81;;;24.41;30.99
40612;BME280;26317;44.894;20.286;2023-04-23T11:37:18;100362.34;;;24.70;29.20
40612;BME280;26317;44.894;20.286;2023-04-23T11:39:56;100358.06;;;24.73;28.96
40612;BME280;26317;44.894;20.286;2023-04-23T11:42:40;100354.00;;;24.63;28.08
40612;BME280;26317;44.894;20.286;2023-04-23T11:45:20;100364.28;;;24.70;28.46
40612;BME280;26317;44.894;20.286;2023-04-23T11:47:59;100356.94;;;24.78;28.80
40612;BME280;26317;44.894;20.286;2023-04-23T11:50:40;100356.84;;;24.97;27.86
40612;BME280;26317;44.894;20.286;2023-04-23T11:53:21;100353.59;;;24.88;28.12
40612;BME280;26317;44.894;20.286;2023-04-23T11:55:58;100350.16;;;24.68;28.60
40612;BME280;26317;44.894;20.286;2023-04-23T11:58:42;100344.16;;;24.59;28.39
40612;BME280;26317;44.894;20.286;2023-04-23T12:01:27;100342.53;;;24.54;28.45
40612;BME280;26317;44.894;20.286;2023-04-23T12:04:13;100297.25;;;24.15;29.08
40612;BME280;26317;44.894;20.286;2023-04-23T12:07:04;100339.34;;;24.52;29.28
40612;BME280;26317;44.894;20.286;2023-04-23T12:10:01;100334.38;;;24.61;29.69
40612;BME280;26317;44.894;20.286;2023-04-23T12:12:38;100334.97;;;24.74;31.15
40612;BME280;26317;44.894;20.286;2023-04-23T12:15:21;100340.94;;;24.80;29.23
40612;BME280;26317;44.894;20.286;2023-04-23T12:18:08;100322.72;;;24.68;30.18
40612;BME280;26317;44.894;20.286;2023-04-23T12:20:41;100318.34;;;24.90;27.40
40612;BME280;26317;44.894;20.286;2023-04-23T12:23:14;100319.94;;;24.91;29.19
40612;BME280;26317;44.894;20.286;2023-04-23T12:25:48;100330.78;;;24.84;28.55
40612;BME280;26317;44.894;20.286;2023-04-23T12:28:27;100328.81;;;24.84;27.94
40612;BME280;26317;44.894;20.286;2023-04-23T12:31:03;100320.75;;;24.95;27.50
40612;BME280;26317;44.894;20.286;2023-04-23T12:33:40;100313.13;;;25.11;26.58
40612;BME280;26317;44.894;20.286;2023-04-23T12:36:18;100308.66;;;25.29;27.60
40612;BME280;26317;44.894;20.286;2023-04-23T12:39:30;100305.91;;;25.62;27.36
40612;BME280;26317;44.894;20.286;2023-04-23T12:42:15;100304.56;;;25.90;26.40
40612;BME280;26317;44.894;20.286;2023-04-23T12:45:03;100298.59;;;25.81;25.79
40612;BME280;26317;44.894;20.286;2023-04-23T12:47:52;100295.69;;;25.63;25.90
40612;BME280;26317;44.894;20.286;2023-04-23T12:50:31;100295.38;;;25.38;26.31
40612;BME280;26317;44.894;20.286;2023-04-23T12:53:08;100290.59;;;25.28;27.02
40612;BME280;26317;44.894;20.286;2023-04-23T12:55:49;100294.41;;;25.20;26.60
40612;BME280;26317;44.894;20.286;2023-04-23T12:58:28;100293.81;;;25.37;27.49
40612;BME280;26317;44.894;20.286;2023-04-23T13:01:04;100278.00;;;25.60;26.12
40612;BME280;26317;44.894;20.286;2023-04-23T13:03:43;100286.09;;;25.87;25.25
40612;BME280;26317;44.894;20.286;2023-04-23T13:06:22;100288.66;;;26.13;25.74
40612;BME280;26317;44.894;20.286;2023-04-23T13:08:58;100277.78;;;26.27;24.15
40612;BME280;26317;44.894;20.286;2023-04-23T13:11:38;100274.19;;;26.20;24.57
40612;BME280;26317;44.894;20.286;2023-04-23T13:14:24;100271.91;;;26.25;24.90
40612;BME280;26317;44.894;20.286;2023-04-23T13:17:03;100270.31;;;26.24;24.54
40612;BME280;26317;44.894;20.286;2023-04-23T13:19:41;100267.72;;;25.98;24.27
40612;BME280;26317;44.894;20.286;2023-04-23T13:22:20;100265.75;;;25.95;26.19
40612;BME280;26317;44.894;20.286;2023-04-23T13:25:01;100264.81;;;25.80;25.58
40612;BME280;26317;44.894;20.286;2023-04-23T13:27:40;100258.75;;;25.60;25.40
40612;BME280;26317;44.894;20.286;2023-04-23T13:30:17;100256.59;;;25.43;25.40
40612;BME280;26317;44.894;20.286;2023-04-23T13:32:53;100252.34;;;25.49;26.97
40612;BME280;26317;44.894;20.286;2023-04-23T13:35:34;100250.31;;;25.80;25.81
40612;BME280;26317;44.894;20.286;2023-04-23T13:38:10;100211.88;;;25.87;25.45
40612;BME280;26317;44.894;20.286;2023-04-23T13:40:57;100254.75;;;26.49;25.74
40612;BME280;26317;44.894;20.286;2023-04-23T13:43:38;100239.53;;;26.77;23.30
40612;BME280;26317;44.894;20.286;2023-04-23T13:46:13;100236.94;;;27.12;23.51
40612;BME280;26317;44.894;20.286;2023-04-23T13:48:48;100231.50;;;27.30;22.80
40612;BME280;26317;44.894;20.286;2023-04-23T13:51:29;100228.75;;;27.40;23.71
40612;BME280;26317;44.894;20.286;2023-04-23T13:54:07;100223.66;;;27.57;24.77